Time;durP1;ratioP1;P1;durP2;ratioP2;P2;SDS_P1;SDS_P2;PMS_P1;PMS_P2;Temp;Humidity;BMP_temperature;BMP_pressure;BME280_temperature;BME280_humidity;BME280_pressure;Samples;Min_cycle;Max_cycle;Signal;HPM_P1;HPM_P2
2021/08/23 00:02:26;;;;;;;14.88;5.68;;;;;;;21.88;59.80;100480.00;5051894;28;20049;-64
2021/08/23 00:04:52;;;;;;;13.90;5.97;;;;;;;21.92;59.75;100498.00;5035303;28;20053;-64
2021/08/23 00:07:19;;;;;;;18.20;6.00;;;;;;;21.95;59.45;100493.59;5032294;28;20128;-64
2021/08/23 00:09:47;;;;;;;11.70;6.03;;;;;;;21.94;59.81;100501.28;5031515;28;20128;-64
2021/08/23 00:12:14;;;;;;;17.42;6.30;;;;;;;21.88;59.62;100497.06;5031895;28;20049;-64
2021/08/23 00:14:41;;;;;;;12.50;7.15;;;;;;;21.87;59.63;100498.22;5032105;28;20053;-64
2021/08/23 00:17:08;;;;;;;10.50;5.43;;;;;;;21.56;59.64;100442.03;5032262;28;20073;-64
2021/08/23 00:19:35;;;;;;;13.07;6.03;;;;;;;21.82;60.00;100487.09;5031914;28;20592;-64
2021/08/23 00:22:19;;;;;;;9.05;4.90;;;;;;;21.81;59.90;100478.94;5031743;28;20205;-64
2021/08/23 00:24:48;;;;;;;12.70;6.53;;;;;;;21.79;59.98;100475.63;5031846;28;20382;-64
2021/08/23 00:27:16;;;;;;;11.20;6.20;;;;;;;21.71;60.00;100454.69;5031746;28;20434;-64
2021/08/23 00:29:44;;;;;;;16.70;6.63;;;;;;;21.77;60.12;100468.28;5047028;28;20080;-64
2021/08/23 00:32:11;;;;;;;11.43;5.82;;;;;;;21.70;60.27;100455.84;5049666;28;20135;-64
2021/08/23 00:34:38;;;;;;;11.63;5.70;;;;;;;21.66;59.97;100458.59;5051447;28;20091;-64
2021/08/23 00:37:05;;;;;;;12.88;5.28;;;;;;;21.53;60.38;100452.09;5051587;28;20132;-64
2021/08/23 00:39:33;;;;;;;13.23;6.03;;;;;;;21.59;60.50;100464.06;5047310;28;20073;-64
2021/08/23 00:42:02;;;;;;;11.40;5.18;;;;;;;21.44;60.53;100448.56;5033157;28;20049;-65
2021/08/23 00:44:34;;;;;;;16.63;5.63;;;;;;;21.45;60.71;100440.88;5034408;28;20124;-65
2021/08/23 00:47:01;;;;;;;8.55;4.63;;;;;;;21.50;60.53;100452.84;5035408;28;20135;-63
2021/08/23 00:49:29;;;;;;;13.73;5.30;;;;;;;21.32;60.59;100419.31;5052541;28;20075;-64
2021/08/23 00:51:58;;;;;;;13.02;6.10;;;;;;;21.49;60.46;100439.78;5051154;28;20565;-64
2021/08/23 00:54:25;;;;;;;13.13;5.55;;;;;;;21.60;60.60;100464.88;5034955;28;20073;-64
2021/08/23 00:56:51;;;;;;;11.82;5.70;;;;;;;21.50;60.55;100446.28;5034973;28;20080;-64
2021/08/23 00:59:20;;;;;;;12.95;5.18;;;;;;;21.66;60.59;100463.44;5052507;28;20077;-64
2021/08/23 01:01:51;;;;;;;14.50;6.37;;;;;;;21.66;60.62;100458.59;5055008;28;20053;-64
2021/08/23 01:04:37;;;;;;;12.00;5.35;;;;;;;21.70;60.54;100453.84;5054838;28;20074;-64
2021/08/23 01:07:08;;;;;;;10.13;5.20;;;;;;;21.67;60.23;100448.88;5042146;28;20076;-64
2021/08/23 01:09:39;;;;;;;18.48;6.55;;;;;;;21.72;60.52;100451.47;5035162;28;20119;-64
2021/08/23 01:12:08;;;;;;;12.90;5.00;;;;;;;21.72;60.27;100442.94;5034761;28;20140;-64
2021/08/23 01:14:37;;;;;;;10.30;5.93;;;;;;;21.68;60.29;100441.19;5034617;28;20144;-64
2021/08/23 01:17:05;;;;;;;10.50;5.43;;;;;;;21.71;60.59;100435.63;5033653;28;20042;-64
2021/08/23 01:19:33;;;;;;;17.00;6.10;;;;;;;21.64;60.44;100437.38;5034558;28;20889;-64
2021/08/23 01:22:03;;;;;;;13.98;6.07;;;;;;;21.70;60.42;100435.97;5034590;28;20103;-64
2021/08/23 01:24:32;;;;;;;12.00;5.47;;;;;;;21.57;60.66;100422.97;5035226;28;20073;-64
2021/08/23 01:27:01;;;;;;;12.10;5.53;;;;;;;21.68;60.55;100439.19;5035003;28;20080;-63
2021/08/23 01:29:35;;;;;;;12.35;5.60;;;;;;;21.65;60.75;100436.22;5034674;28;20157;-65
2021/08/23 01:32:22;;;;;;;8.57;4.93;;;;;;;21.59;60.65;100437.66;5034394;28;20145;-64
2021/08/23 01:34:53;;;;;;;13.52;6.57;;;;;;;21.68;60.58;100444.03;5032908;28;20128;-65
2021/08/23 01:37:21;;;;;;;11.18;4.97;;;;;;;21.69;60.72;100454.22;5034171;28;20104;-64
2021/08/23 01:39:48;;;;;;;14.30;5.63;;;;;;;21.70;60.82;100467.22;5034749;28;20081;-65
2021/08/23 01:42:16;;;;;;;13.77;6.65;;;;;;;21.69;60.75;100465.56;5034190;28;20077;-64
2021/08/23 01:44:44;;;;;;;9.82;5.13;;;;;;;21.70;60.72;100461.53;5034146;28;20116;-65
2021/08/23 01:47:11;;;;;;;12.13;5.25;;;;;;;21.69;60.74;100466.41;5034151;28;20081;-63
2021/08/23 01:49:38;;;;;;;12.02;5.10;;;;;;;21.74;60.72;100462.47;5034084;28;20513;-64
2021/08/23 01:52:09;;;;;;;11.32;4.80;;;;;;;21.74;60.79;100451.97;5033843;28;20069;-64
2021/08/23 01:54:37;;;;;;;11.00;5.50;;;;;;;21.60;60.84;100434.44;5031788;28;20149;-64
2021/08/23 01:57:04;;;;;;;10.68;5.53;;;;;;;21.57;60.85;100429.47;5034895;28;20148;-64
2021/08/23 01:59:31;;;;;;;10.90;4.85;;;;;;;21.59;60.78;100449.03;5033862;28;20507;-65
2021/08/23 02:01:57;;;;;;;11.43;5.32;;;;;;;21.42;61.03;100422.53;5033609;28;20589;-64
2021/08/23 02:04:24;;;;;;;12.15;5.47;;;;;;;21.49;61.31;100430.44;5032676;28;20103;-63
2021/08/23 02:06:51;;;;;;;13.68;6.07;;;;;;;21.48;61.20;100438.16;5033706;28;20081;-64
2021/08/23 02:09:18;;;;;;;11.68;5.68;;;;;;;21.22;61.54;100404.41;5033483;28;20069;-64
2021/08/23 02:11:44;;;;;;;17.42;6.80;;;;;;;21.28;61.53;100430.56;5033674;28;20049;-63
2021/08/23 02:14:11;;;;;;;12.35;5.75;;;;;;;21.32;61.79;100422.97;5034017;28;20132;-64
2021/08/23 02:16:40;;;;;;;13.30;5.78;;;;;;;21.36;61.78;100411.75;5033747;28;20057;-63
2021/08/23 02:19:09;;;;;;;10.73;5.43;;;;;;;21.40;61.45;100418.38;5033611;28;20049;-64
2021/08/23 02:21:50;;;;;;;16.27;7.03;;;;;;;21.36;61.57;100401.22;5033891;28;20073;-64
2021/08/23 02:24:18;;;;;;;16.63;6.57;;;;;;;21.39;61.75;100403.34;5033737;28;20132;-64
2021/08/23 02:26:45;;;;;;;13.45;5.68;;;;;;;21.42;61.76;100405.47;5033401;28;20088;-63
2021/08/23 02:29:12;;;;;;;12.60;5.90;;;;;;;21.46;61.64;100399.91;5049012;28;20580;-64
2021/08/23 02:31:39;;;;;;;9.70;6.28;;;;;;;21.49;61.69;100404.88;5052357;28;20132;-64
2021/08/23 02:34:06;;;;;;;12.02;6.03;;;;;;;21.51;61.64;100397.66;5052071;28;20515;-64
2021/08/23 02:36:34;;;;;;;11.00;5.45;;;;;;;21.45;61.69;100382.03;5053090;28;20080;-64
2021/08/23 02:39:01;;;;;;;12.70;5.68;;;;;;;21.51;61.47;100383.44;5053045;28;20076;-65
2021/08/23 02:41:28;;;;;;;14.88;6.05;;;;;;;21.44;61.61;100397.44;5053027;28;20045;-65
2021/08/23 02:43:55;;;;;;;13.57;5.72;;;;;;;21.27;61.67;100389.97;5046149;28;20073;-64
2021/08/23 02:46:21;;;;;;;11.57;6.18;;;;;;;21.36;61.89;100406.06;5031836;28;20128;-64
2021/08/23 02:48:48;;;;;;;13.85;6.15;;;;;;;21.18;61.84;100371.41;5033525;28;20045;-64
2021/08/23 02:51:15;;;;;;;14.20;6.60;;;;;;;21.37;61.75;100391.53;5032578;28;20556;-64
2021/08/23 02:53:42;;;;;;;23.77;10.77;;;;;;;21.29;62.02;100375.41;5032967;28;20088;-64
2021/08/23 02:56:09;;;;;;;18.67;7.20;;;;;;;21.25;61.91;100360.25;5033172;28;20073;-64
2021/08/23 02:58:36;;;;;;;13.85;6.85;;;;;;;21.40;61.88;100379.47;5032705;28;20081;-64
2021/08/23 03:01:03;;;;;;;11.52;5.75;;;;;;;21.37;61.94;100385.84;5032759;28;20041;-64
2021/08/23 03:03:30;;;;;;;12.70;5.55;;;;;;;21.33;61.90;100384.03;5032569;28;20052;-64
2021/08/23 03:05:56;;;;;;;13.93;6.07;;;;;;;21.22;61.96;100373.16;5032883;28;20088;-64
2021/08/23 03:08:23;;;;;;;16.65;7.53;;;;;;;21.12;62.25;100367.13;5032604;28;20090;-64
2021/08/23 03:10:54;;;;;;;12.57;6.97;;;;;;;21.22;62.20;100369.50;5032601;28;20136;-64
2021/08/23 03:13:21;;;;;;;13.57;6.80;;;;;;;21.08;62.19;100360.53;5032320;28;20045;-64
2021/08/23 03:15:50;;;;;;;12.32;7.07;;;;;;;21.09;62.12;100360.16;5032415;28;20091;-64
2021/08/23 03:18:17;;;;;;;15.65;6.10;;;;;;;20.93;62.55;100362.09;5032406;28;20059;-64
2021/08/23 03:20:43;;;;;;;11.80;5.70;;;;;;;20.59;62.90;100322.47;5031278;28;20537;-64
2021/08/23 03:23:10;;;;;;;10.55;6.78;;;;;;;20.84;62.86;100376.38;5033260;28;20073;-64
2021/08/23 03:25:37;;;;;;;10.88;6.05;;;;;;;20.77;62.92;100364.78;5032308;28;20146;-64
2021/08/23 03:28:04;;;;;;;9.70;6.22;;;;;;;20.66;63.02;100355.09;5031061;28;20783;-64
2021/08/23 03:30:31;;;;;;;20.27;6.97;;;;;;;20.76;63.40;100354.63;5032259;28;20045;-64
2021/08/23 03:32:58;;;;;;;11.65;6.47;;;;;;;20.79;63.06;100353.94;5032316;28;20133;-64
2021/08/23 03:35:24;;;;;;;11.60;5.68;;;;;;;20.78;63.06;100360.75;5032282;28;20072;-64
2021/08/23 03:37:51;;;;;;;10.95;6.10;;;;;;;20.67;62.82;100348.22;5032336;28;20457;-64
2021/08/23 03:40:19;;;;;;;11.75;6.00;;;;;;;20.55;63.16;100344.22;5032763;28;20045;-64
2021/08/23 03:42:46;;;;;;;11.95;5.78;;;;;;;20.64;63.22;100357.44;5031987;28;20549;-64
2021/08/23 03:45:12;;;;;;;11.10;6.18;;;;;;;20.61;63.49;100349.63;5032131;28;20069;-65
2021/08/23 03:47:39;;;;;;;13.65;6.05;;;;;;;20.56;63.41;100342.19;5032589;28;20069;-65
2021/08/23 03:50:06;;;;;;;12.50;6.10;;;;;;;20.67;63.38;100345.41;5032442;28;20450;-65
2021/08/23 03:52:33;;;;;;;11.57;6.07;;;;;;;20.64;63.30;100351.78;5031910;28;20045;-65
2021/08/23 03:55:01;;;;;;;12.73;5.97;;;;;;;20.60;63.42;100345.97;5032137;28;20080;-65
2021/08/23 03:57:28;;;;;;;12.98;5.90;;;;;;;20.55;63.32;100334.88;5046516;28;20074;-65
2021/08/23 03:59:55;;;;;;;11.15;6.00;;;;;;;20.48;63.36;100338.25;5051544;28;20073;-64
2021/08/23 04:02:22;;;;;;;14.90;6.68;;;;;;;20.55;63.66;100354.72;5048286;28;20041;-64
2021/08/23 04:04:49;;;;;;;12.45;5.30;;;;;;;20.41;63.67;100329.50;5031929;28;20077;-65
2021/08/23 04:07:16;;;;;;;13.88;7.13;;;;;;;20.30;63.49;100312.09;5030870;28;20480;-65
2021/08/23 04:09:42;;;;;;;11.27;5.68;;;;;;;20.44;63.42;100331.63;5032046;28;20132;-65
2021/08/23 04:12:09;;;;;;;16.17;6.07;;;;;;;20.54;63.63;100348.22;5042778;28;20132;-65
2021/08/23 04:14:36;;;;;;;18.55;7.38;;;;;;;20.53;63.83;100351.41;5049627;28;20049;-65
2021/08/23 04:17:03;;;;;;;12.82;6.28;;;;;;;20.51;63.58;100354.63;5052495;28;20132;-64
2021/08/23 04:19:30;;;;;;;12.52;6.65;;;;;;;20.41;63.67;100342.84;5050912;28;20069;-65
2021/08/23 04:21:57;;;;;;;10.95;5.70;;;;;;;20.48;63.78;100355.28;5035704;28;20136;-65
2021/08/23 04:24:24;;;;;;;17.30;6.72;;;;;;;20.41;63.91;100337.16;5035694;28;20626;-65
2021/08/23 04:26:51;;;;;;;14.43;7.63;;;;;;;20.51;63.95;100350.94;5038310;28;20132;-65
2021/08/23 04:29:18;;;;;;;14.35;7.15;;;;;;;20.52;63.78;100344.91;5055575;28;20120;-65
2021/08/23 04:31:46;;;;;;;13.93;6.38;;;;;;;20.50;63.89;100352.09;5049132;28;20072;-65
2021/08/23 04:34:12;;;;;;;19.48;6.90;;;;;;;20.38;64.06;100337.91;5035557;28;20069;-64
2021/08/23 04:36:40;;;;;;;9.48;5.72;;;;;;;20.38;63.92;100330.22;5035705;28;20057;-65
2021/08/23 04:39:07;;;;;;;16.70;6.63;;;;;;;20.40;64.12;100347.69;5035514;28;20073;-65
2021/08/23 04:41:38;;;;;;;10.23;6.28;;;;;;;20.39;64.15;100333.88;5033998;28;20084;-63
2021/08/23 04:44:06;;;;;;;13.75;5.93;;;;;;;20.38;64.01;100337.91;5035350;28;20050;-64
2021/08/23 04:46:33;;;;;;;14.43;6.45;;;;;;;20.23;64.40;100330.88;5046133;28;20049;-63
2021/08/23 04:49:00;;;;;;;13.75;5.68;;;;;;;20.18;64.25;100329.09;5035288;28;20132;-64
2021/08/23 04:51:27;;;;;;;11.40;5.18;;;;;;;20.24;64.32;100349.53;5034759;28;20132;-65
2021/08/23 04:53:54;;;;;;;11.85;5.85;;;;;;;20.22;64.31;100352.75;5034985;28;20099;-64
2021/08/23 04:56:20;;;;;;;12.50;6.50;;;;;;;20.10;64.51;100333.72;5035025;28;20080;-65
2021/08/23 04:58:47;;;;;;;14.27;6.95;;;;;;;20.14;64.61;100345.16;5033729;28;20084;-65
2021/08/23 05:01:14;;;;;;;13.00;6.57;;;;;;;20.14;64.40;100339.50;5034214;28;20096;-65
2021/08/23 05:03:42;;;;;;;13.45;6.45;;;;;;;20.14;64.54;100350.84;5035566;28;20049;-65
2021/08/23 05:06:08;;;;;;;15.02;6.63;;;;;;;20.12;64.76;100344.69;5034862;28;20094;-63
2021/08/23 05:08:35;;;;;;;12.10;6.18;;;;;;;20.09;64.59;100340.53;5034856;28;20132;-66
2021/08/23 05:11:02;;;;;;;16.35;7.60;;;;;;;20.07;64.85;100345.75;5035025;28;20211;-63
2021/08/23 05:13:29;;;;;;;11.27;6.57;;;;;;;20.04;64.77;100356.94;5034665;28;20049;-63
2021/08/23 05:15:56;;;;;;;13.57;6.68;;;;;;;20.06;64.80;100343.25;5034935;28;20124;-63
2021/08/23 05:18:24;;;;;;;14.25;7.10;;;;;;;20.07;64.90;100342.09;5034856;28;20048;-64
2021/08/23 05:20:51;;;;;;;14.52;7.78;;;;;;;20.05;64.92;100339.59;5048431;28;20083;-64
2021/08/23 05:23:18;;;;;;;16.00;6.88;;;;;;;20.02;64.93;100339.44;5054489;28;20075;-64
2021/08/23 05:25:44;;;;;;;13.07;6.80;;;;;;;20.02;65.07;100334.59;5049663;28;20076;-64
2021/08/23 05:28:11;;;;;;;12.15;6.68;;;;;;;19.83;64.86;100312.47;5034517;28;20080;-64
2021/08/23 05:30:38;;;;;;;13.00;7.20;;;;;;;20.03;65.08;100339.13;5034507;28;20489;-64
2021/08/23 05:33:05;;;;;;;17.17;7.85;;;;;;;19.80;64.97;100304.69;5034374;28;20460;-64
2021/08/23 05:35:32;;;;;;;15.18;6.95;;;;;;;19.88;64.91;100319.94;5066117;28;20520;-64
2021/08/23 05:37:59;;;;;;;13.70;7.82;;;;;;;19.86;65.30;100320.28;5035258;28;20084;-64
2021/08/23 05:40:29;;;;;;;20.60;7.75;;;;;;;19.94;65.05;100343.22;5034571;28;20041;-65
2021/08/23 05:42:57;;;;;;;17.48;7.85;;;;;;;19.90;65.42;100337.41;5034384;28;20114;-64
2021/08/23 05:45:24;;;;;;;13.43;7.57;;;;;;;19.88;65.50;100342.59;5053959;28;20416;-64
2021/08/23 05:47:51;;;;;;;12.77;6.93;;;;;;;19.88;65.47;100339.75;5053961;28;20140;-65
2021/08/23 05:50:18;;;;;;;16.52;7.30;;;;;;;19.88;65.36;100351.09;5043454;28;20052;-65
2021/08/23 05:52:45;;;;;;;17.35;6.97;;;;;;;19.91;65.72;100350.41;5033128;28;20397;-64
2021/08/23 05:55:11;;;;;;;17.55;8.07;;;;;;;19.94;65.83;100358.22;5034540;28;20562;-65
2021/08/23 05:57:38;;;;;;;14.35;8.25;;;;;;;19.93;65.42;100350.91;5033977;28;20442;-64
2021/08/23 06:00:07;;;;;;;13.57;6.95;;;;;;;19.92;65.66;100343.53;5033941;28;20124;-64
2021/08/23 06:02:34;;;;;;;17.33;8.02;;;;;;;19.92;65.71;100346.38;5033927;28;20103;-64
2021/08/23 06:05:00;;;;;;;13.70;7.82;;;;;;;19.86;65.73;100336.44;5050718;28;20120;-64
2021/08/23 06:07:27;;;;;;;13.95;7.07;;;;;;;19.88;65.89;100342.59;5053645;28;20084;-64
2021/08/23 06:09:54;;;;;;;14.98;7.85;;;;;;;19.76;65.94;100334.03;5053611;28;20505;-64
2021/08/23 06:12:21;;;;;;;14.57;7.80;;;;;;;19.77;66.19;100328.03;5050965;28;20120;-63
2021/08/23 06:14:48;;;;;;;14.50;7.05;;;;;;;19.76;66.15;100319.88;5053452;28;20083;-64
2021/08/23 06:17:15;;;;;;;15.55;7.38;;;;;;;19.79;66.03;100316.34;5053398;28;20136;-64
2021/08/23 06:19:41;;;;;;;15.85;8.13;;;;;;;19.97;66.14;100337.69;5051472;28;20084;-64
2021/08/23 06:22:08;;;;;;;17.48;7.43;;;;;;;20.00;66.19;100336.97;5033676;28;20124;-64
2021/08/23 06:24:35;;;;;;;16.48;8.18;;;;;;;20.03;66.04;100330.63;5033224;28;20080;-64
2021/08/23 06:27:02;;;;;;;12.77;7.00;;;;;;;20.12;65.94;100334.16;5033126;28;20128;-64
2021/08/23 06:29:29;;;;;;;15.32;7.80;;;;;;;20.21;65.76;100333.25;5033838;28;20073;-64
2021/08/23 06:31:56;;;;;;;13.93;7.65;;;;;;;20.23;66.04;100325.22;5033229;28;20081;-65
2021/08/23 06:34:23;;;;;;;14.85;7.63;;;;;;;20.17;66.10;100318.97;5032837;28;20168;-64
2021/08/23 06:36:50;;;;;;;14.15;7.43;;;;;;;20.25;65.81;100325.69;5033143;28;20068;-63
2021/08/23 06:39:17;;;;;;;23.60;8.10;;;;;;;20.22;66.20;100327.22;5032509;28;20128;-63
2021/08/23 06:41:46;;;;;;;16.88;8.43;;;;;;;20.35;66.17;100328.09;5033057;28;20047;-63
2021/08/23 06:44:13;;;;;;;21.05;8.52;;;;;;;20.49;66.06;100317.22;5047291;28;20055;-64
2021/08/23 06:46:40;;;;;;;15.43;8.55;;;;;;;20.63;65.71;100319.75;5033521;28;20170;-63
2021/08/23 06:49:07;;;;;;;18.52;8.23;;;;;;;20.76;65.80;100326.25;5033189;28;20060;-64
2021/08/23 06:51:34;;;;;;;17.23;8.18;;;;;;;20.98;65.67;100331.44;5032650;28;20501;-63
2021/08/23 06:54:01;;;;;;;16.33;7.47;;;;;;;21.16;65.37;100322.66;5032671;28;20222;-63
2021/08/23 06:56:28;;;;;;;19.40;8.73;;;;;;;21.32;64.96;100331.25;5033072;28;20353;-63
2021/08/23 06:58:55;;;;;;;18.35;8.77;;;;;;;21.49;64.77;100323.31;5034508;28;20080;-63
2021/08/23 07:01:26;;;;;;;11.93;6.50;;;;;;;21.55;64.16;100308.84;5052723;28;20084;-64
2021/08/23 07:03:53;;;;;;;28.23;13.45;;;;;;;21.74;64.03;100309.00;5037886;28;20099;-63
2021/08/23 07:06:20;;;;;;;21.50;12.02;;;;;;;21.90;63.91;100317.56;5032533;28;20553;-64
2021/08/23 07:08:47;;;;;;;16.98;8.45;;;;;;;22.17;63.55;100327.28;5032931;28;20124;-64
2021/08/23 07:11:14;;;;;;;15.65;7.70;;;;;;;22.38;63.14;100327.88;5032771;28;20457;-64
2021/08/23 07:13:41;;;;;;;15.68;7.70;;;;;;;22.56;62.80;100330.34;5043898;28;20516;-64
2021/08/23 07:16:08;;;;;;;20.40;8.20;;;;;;;22.71;62.32;100327.50;5032764;28;20045;-64
2021/08/23 07:18:35;;;;;;;14.75;8.13;;;;;;;23.08;61.51;100320.69;5031089;28;20045;-64
2021/08/23 07:21:03;;;;;;;24.58;10.25;;;;;;;23.34;61.48;100325.75;5032993;28;20540;-65
2021/08/23 07:23:29;;;;;;;29.25;12.40;;;;;;;23.62;60.39;100326.41;5032734;28;20073;-65
2021/08/23 07:25:57;;;;;;;21.20;11.40;;;;;;;23.87;60.47;100311.84;5032519;28;20079;-64
2021/08/23 07:28:26;;;;;;;21.10;12.05;;;;;;;24.23;59.56;100313.34;5032373;28;20550;-65
2021/08/23 07:30:53;;;;;;;18.30;9.50;;;;;;;24.44;59.34;100321.50;5032058;28;20099;-65
2021/08/23 07:33:21;;;;;;;17.77;8.95;;;;;;;24.76;58.57;100312.69;5032435;28;20045;-64
2021/08/23 07:35:48;;;;;;;12.75;7.25;;;;;;;25.04;57.95;100321.69;5032432;28;20120;-65
2021/08/23 07:38:15;;;;;;;13.65;7.00;;;;;;;25.25;57.73;100317.53;5032986;28;20085;-64
2021/08/23 07:40:42;;;;;;;13.45;7.25;;;;;;;25.22;57.29;100295.44;5032347;28;20455;-64
2021/08/23 07:43:09;;;;;;;13.73;6.53;;;;;;;25.53;57.03;100317.09;5032063;28;20137;-65
2021/08/23 07:45:36;;;;;;;14.63;6.78;;;;;;;25.51;56.77;100290.97;5032325;28;20120;-65
2021/08/23 07:48:04;;;;;;;19.42;6.95;;;;;;;25.97;56.16;100314.41;5032149;28;20563;-63
2021/08/23 07:50:31;;;;;;;14.07;7.43;;;;;;;26.14;55.88;100318.69;5032145;28;20132;-64
2021/08/23 07:52:58;;;;;;;12.88;6.93;;;;;;;26.38;55.31;100322.22;5035341;28;20149;-64
2021/08/23 07:55:25;;;;;;;22.20;7.47;;;;;;;26.52;54.81;100316.66;5036602;28;20088;-64
2021/08/23 07:57:52;;;;;;;14.63;7.10;;;;;;;26.78;54.08;100309.13;5035031;28;20142;-63
2021/08/23 08:00:21;;;;;;;18.67;7.43;;;;;;;26.94;53.42;100283.88;5036046;28;20050;-64
2021/08/23 08:02:48;;;;;;;19.73;8.13;;;;;;;27.34;53.10;100319.34;5036050;28;20063;-64
2021/08/23 08:05:15;;;;;;;19.30;7.82;;;;;;;27.52;52.58;100300.22;5036211;28;20341;-65
2021/08/23 08:07:42;;;;;;;14.60;7.40;;;;;;;27.89;51.91;100302.00;5035773;28;20135;-64
2021/08/23 08:10:11;;;;;;;18.10;6.93;;;;;;;28.17;50.70;100306.19;5035717;28;20088;-64
2021/08/23 08:12:38;;;;;;;11.50;6.20;;;;;;;28.48;50.54;100305.47;5036600;28;20120;-64
2021/08/23 08:15:06;;;;;;;14.50;6.47;;;;;;;28.71;49.49;100301.34;5035947;28;20092;-64
2021/08/23 08:17:33;;;;;;;12.18;6.25;;;;;;;28.99;48.96;100301.38;5036146;28;20461;-64
2021/08/23 08:20:00;;;;;;;16.88;7.88;;;;;;;29.29;48.40;100300.06;5035834;28;20093;-65
2021/08/23 08:22:26;;;;;;;12.75;6.85;;;;;;;29.51;47.76;100304.53;5035775;28;20085;-65
2021/08/23 08:24:53;;;;;;;13.48;6.82;;;;;;;29.78;47.32;100306.94;5035714;28;20469;-65
2021/08/23 08:27:20;;;;;;;15.63;6.90;;;;;;;29.87;46.91;100290.00;5035836;28;20092;-65
2021/08/23 08:29:47;;;;;;;16.20;7.00;;;;;;;30.28;46.28;100308.72;5036162;28;20089;-65
2021/08/23 08:32:14;;;;;;;12.88;6.85;;;;;;;30.57;45.53;100318.00;5035684;28;20085;-65
2021/08/23 08:34:41;;;;;;;18.05;6.82;;;;;;;30.77;45.46;100304.69;5034019;28;20050;-63
2021/08/23 08:37:07;;;;;;;19.15;7.47;;;;;;;31.04;44.67;100309.78;5035326;28;20136;-64
2021/08/23 08:39:34;;;;;;;15.20;5.65;;;;;;;31.29;44.62;100313.25;5035626;28;20077;-64
2021/08/23 08:42:03;;;;;;;18.27;6.15;;;;;;;31.41;43.58;100291.69;5035256;28;20060;-64
2021/08/23 08:44:33;;;;;;;11.73;5.50;;;;;;;31.77;42.97;100300.75;5035261;28;20555;-64
2021/08/23 08:47:02;;;;;;;17.45;6.03;;;;;;;31.97;43.14;100312.47;5035254;28;20089;-64
2021/08/23 08:49:30;;;;;;;13.83;5.60;;;;;;;32.15;42.21;100300.66;5035203;28;20081;-64
2021/08/23 08:51:57;;;;;;;12.38;5.47;;;;;;;32.33;41.69;100303.28;5034289;28;20076;-63
2021/08/23 08:54:23;;;;;;;10.40;6.07;;;;;;;32.45;41.21;100307.69;5035040;28;20132;-63
2021/08/23 08:56:50;;;;;;;22.17;6.53;;;;;;;32.61;41.03;100307.81;5035427;28;20050;-63
2021/08/23 08:59:17;;;;;;;14.45;6.22;;;;;;;32.64;41.08;100286.69;5034855;28;20144;-64
2021/08/23 09:01:45;;;;;;;14.00;5.78;;;;;;;32.79;40.79;100290.19;5035631;28;20120;-64
2021/08/23 09:04:12;;;;;;;16.13;7.07;;;;;;;32.88;40.41;100269.38;5034433;28;20046;-64
2021/08/23 09:06:59;;;;;;;17.88;6.55;;;;;;;33.16;39.90;100288.28;5034686;28;20547;-63
2021/08/23 09:09:28;;;;;;;17.35;6.05;;;;;;;33.30;39.66;100276.47;5035105;28;20080;-64
2021/08/23 09:12:09;;;;;;;12.65;6.22;;;;;;;33.40;38.86;100271.69;5034985;28;20471;-63
2021/08/23 09:14:56;;;;;;;10.82;5.30;;;;;;;33.51;39.11;100277.31;5034491;28;20757;-63
2021/08/23 09:17:25;;;;;;;14.85;5.40;;;;;;;33.86;38.50;100279.44;5035084;28;20045;-64
2021/08/23 09:20:06;;;;;;;;;;;;;;;33.89;40.40;100274.84;5036038;28;20077;-63
2021/08/23 09:22:33;;;;;;;7.35;4.97;;;;;;;34.36;37.66;100289.06;5033489;28;19924;-63
2021/08/23 09:25:11;;;;;;;10.43;4.75;;;;;;;34.64;37.20;100273.91;5034411;28;20489;-63
2021/08/23 09:27:38;;;;;;;11.67;4.97;;;;;;;35.01;36.31;100286.25;5034752;28;20152;-64
2021/08/23 09:30:07;;;;;;;10.13;4.82;;;;;;;35.30;35.19;100268.03;5034283;28;20084;-67
2021/08/23 09:32:57;;;;;;;9.98;5.03;;;;;;;35.46;35.10;100273.81;5049669;28;20132;-64
2021/08/23 09:35:26;;;;;;;8.95;4.50;;;;;;;35.72;33.12;100271.78;5034349;28;20045;-63
2021/08/23 09:37:53;;;;;;;10.13;4.00;;;;;;;35.88;32.63;100273.81;5034746;28;20045;-63
2021/08/23 09:40:26;;;;;;;11.90;4.43;;;;;;;36.11;31.53;100266.91;5033805;28;20455;-64
2021/08/23 09:43:08;;;;;;;7.43;4.72;;;;;;;36.20;31.51;100263.28;5034765;28;20077;-64
2021/08/23 09:45:35;;;;;;;9.40;4.75;;;;;;;36.35;30.81;100281.91;5034200;28;20049;-63
2021/08/23 09:48:04;;;;;;;9.85;4.15;;;;;;;36.53;30.48;100264.72;5034016;28;20084;-64
2021/08/23 09:50:45;;;;;;;7.50;4.13;;;;;;;36.55;29.82;100267.16;5033551;28;20124;-63
2021/08/23 09:53:14;;;;;;;5.55;3.92;;;;;;;36.53;29.54;100273.44;5033510;28;20117;-63
2021/08/23 09:55:52;;;;;;;8.35;4.53;;;;;;;36.62;29.20;100264.00;5034038;28;20077;-63
2021/08/23 09:58:18;;;;;;;7.80;3.90;;;;;;;36.78;29.09;100268.84;5033810;28;20095;-64
2021/08/23 10:00:45;;;;;;;6.57;4.30;;;;;;;36.95;28.79;100267.41;5049559;28;20091;-63
2021/08/23 10:03:20;;;;;;;6.10;4.13;;;;;;;37.26;28.50;100263.84;5048788;28;20041;-63
2021/08/23 10:05:54;;;;;;;9.10;3.97;;;;;;;37.32;27.83;100275.72;5033750;28;20049;-63
2021/08/23 10:08:24;;;;;;;10.15;5.05;;;;;;;37.33;29.83;100265.69;5035363;28;20057;-63
2021/08/23 10:10:53;;;;;;;13.50;5.72;;;;;;;37.29;30.51;100265.81;5052782;28;20081;-63
2021/08/23 10:13:20;;;;;;;15.13;5.07;;;;;;;37.20;30.97;100277.41;5053732;28;20460;-63
2021/08/23 10:15:47;;;;;;;11.60;5.97;;;;;;;37.02;31.28;100262.66;5050908;28;20076;-63
2021/08/23 10:18:16;;;;;;;19.52;6.20;;;;;;;37.03;31.22;100267.19;5033708;28;20041;-63
2021/08/23 10:20:42;;;;;;;;;;;;;;;36.65;32.58;100262.25;5032788;28;20150;-63
2021/08/23 10:23:16;;;;;;;17.48;6.13;;;;;;;36.85;31.52;100270.72;5033466;28;19968;-63
2021/08/23 10:25:45;;;;;;;12.75;5.45;;;;;;;36.77;31.91;100273.88;5033180;28;20136;-63
2021/08/23 10:28:13;;;;;;;12.45;5.63;;;;;;;36.68;31.91;100272.94;5034049;28;20088;-63
2021/08/23 10:30:40;;;;;;;10.80;5.88;;;;;;;36.46;31.98;100279.47;5033048;28;20045;-63
2021/08/23 10:33:11;;;;;;;12.90;5.13;;;;;;;36.50;32.09;100267.75;5033509;28;20111;-63
2021/08/23 10:35:53;;;;;;;11.50;5.05;;;;;;;36.42;32.37;100269.25;5039133;28;20385;-63
2021/08/23 10:38:23;;;;;;;11.05;5.72;;;;;;;36.43;31.62;100268.75;5053377;28;20128;-64
2021/08/23 10:41:12;;;;;;;12.07;5.63;;;;;;;36.09;31.89;100271.56;5053011;28;20080;-62
2021/08/23 10:43:50;;;;;;;9.27;5.63;;;;;;;36.10;31.75;100270.25;5046642;28;20084;-63
2021/08/23 10:46:34;;;;;;;10.60;5.72;;;;;;;36.15;32.45;100272.63;5032942;28;20128;-62
2021/08/23 10:49:10;;;;;;;8.75;5.18;;;;;;;36.27;31.95;100274.69;5032984;28;20486;-62
2021/08/23 10:51:42;;;;;;;11.93;5.55;;;;;;;36.33;31.70;100263.31;5032716;28;20124;-62
2021/08/23 10:54:35;;;;;;;13.00;5.35;;;;;;;36.33;31.80;100255.38;5032713;28;20124;-62
2021/08/23 10:57:01;;;;;;;10.35;5.72;;;;;;;36.62;31.19;100271.94;5032945;28;20132;-64
2021/08/23 10:59:46;;;;;;;12.32;5.80;;;;;;;37.08;31.15;100257.88;5032614;28;20548;-62
2021/08/23 11:02:20;;;;;;;8.75;5.80;;;;;;;37.67;29.85;100254.00;5033086;28;20049;-62
2021/08/23 11:05:20;;;;;;;8.73;5.32;;;;;;;38.20;30.03;100252.38;5033037;28;20096;-62
2021/08/23 11:07:57;;;;;;;8.32;5.55;;;;;;;38.65;29.28;100257.59;5032116;28;20724;-62
2021/08/23 11:10:25;;;;;;;12.35;5.97;;;;;;;38.64;29.36;100256.78;5032799;28;20456;-62
2021/08/23 11:13:10;;;;;;;8.38;5.43;;;;;;;38.44;29.83;100241.00;5032395;28;20128;-63
2021/08/23 11:15:37;;;;;;;14.98;6.07;;;;;;;38.24;29.10;100255.97;5032519;28;20054;-62
2021/08/23 11:18:04;;;;;;;12.85;5.63;;;;;;;38.04;29.38;100259.25;5033008;28;20050;-61
2021/08/23 11:20:44;;;;;;;9.77;5.95;;;;;;;37.83;30.01;100232.56;5032174;28;20128;-62
2021/08/23 11:23:14;;;;;;;9.07;5.15;;;;;;;37.66;29.93;100211.59;5032329;28;20133;-62
2021/08/23 11:25:49;;;;;;;11.88;6.95;;;;;;;37.89;30.01;100230.66;5032173;28;20134;-62
2021/08/23 11:28:18;;;;;;;9.73;5.53;;;;;;;38.06;29.93;100230.47;5047582;28;20136;-63